Larzac (34) - Open Bleu

Date : 28/10/2021
Distance : 2,290 km

Place Nom Licence Catégorie Club Temps min/km CN à J-60 Points Différence Nouveau CN
1 BRAZEAU Joseph 41336 H14 0111AR 0:17:10 7'29 2121 1762
2 ARNOUX Thibault 37085 H10 8807GE 0:18:17 7'59 1693 1992 +299 1768
3 RUIZ Léo 32615 H10 8105OC 0:22:21 9'45 1052 1629 +577 1442
4 ARNOUX Romain 37082 H40 8807GE 0:22:31 9'49 2432 1617 -815 2432
5 LETERME Augustine 40286 D14 7311AR 0:22:52 9'59 1158 1592 +434 1453
6 AUNEAU Naoki 36236 H10 6806GE 0:23:49 10'24 1541 1529 -12 1389
7 LETERME Elise 40284 D40 7311AR 0:23:50 10'24 1256 1528 +272 1443
8 THENOZ Arnaud 33245 H12 7807IF 0:24:08 10'32 1862 1509 -353 1838
9 MOUCHETTE Lise 26181 D14 6917AR 0:24:23 10'38 1129 1493 +364 1268
10 LEMIEGRE Juliette 39840 D14 1408NM 0:24:54 10'52 1388 1462 +74 1519
11 ARNOUX Anne 37083 D40 8807GE 0:25:01 10'55 2084 1456 -628 2084
12 MARCHAND Emma 29437 D16 2704NM 0:25:10 10'59 2015 1447 -568 2331
13 FIORINA Elisa 39867 D14 7311AR 0:25:49 11'16 1410 1188
14 KRUGER LIANNE JOSEFINE 41280 D10 3810AR 0:26:54 11'44 663 1354 +691 1121
15 GUILLET Laly 39914 D14 6408NA 0:29:28 12'52 941 1236 +295 1143
16 BOUIS Adèle 35848 D10 2604AR 0:32:06 14'01 873 1134 +261 1122
17 LEMERCIER Louis 27789 H10 5703GE 0:34:02 14'51 1339 1070 -269 1500
18 MENARD Arlann 39427 H10 4403PL 0:34:23 15'00 (2000) 1059 995
19 DEWILDE Lydie 40654 D40 5907HF 0:36:42 16'01 992 952
20 JEANNOT Sabine 32281 D60 5402GE 1:11:01 31'00 1096 513 -583 1019
BOBIN Hippolyte 32931 H10 3913BF pm None 697 0 711
GOFFRE Alexan 38873 H14 7707IF pm None 1041 0 1202